createdAt,value
2023-02-18T00:00:39.890Z,5.7
2023-02-18T00:03:41.850Z,6.3
2023-02-18T00:06:43.765Z,6.6
2023-02-18T00:09:45.731Z,7.6
2023-02-18T00:12:47.714Z,7
2023-02-18T00:15:49.708Z,8.5
2023-02-18T00:18:51.603Z,6.9
2023-02-18T00:21:53.575Z,6.7
2023-02-18T00:24:55.544Z,7.5
2023-02-18T00:27:57.493Z,5.8
2023-02-18T00:30:59.475Z,5.8
2023-02-18T00:34:01.411Z,4.7
2023-02-18T00:37:03.375Z,2.3
2023-02-18T00:40:05.338Z,3.1
2023-02-18T00:43:07.285Z,3.1
2023-02-18T00:46:09.637Z,2.2
2023-02-18T00:49:11.209Z,2.3
2023-02-18T00:52:13.170Z,2.5
2023-02-18T00:55:15.126Z,3.2
2023-02-18T00:58:17.092Z,3.9
2023-02-18T01:01:19.074Z,9.8
2023-02-18T01:04:21.055Z,4.4
2023-02-18T01:07:22.989Z,5.6
2023-02-18T01:10:24.940Z,6.3
2023-02-18T01:13:26.936Z,3.8
2023-02-18T01:16:29.009Z,3.6
2023-02-18T01:19:30.837Z,4.1
2023-02-18T01:22:32.826Z,5.3
2023-02-18T01:25:34.797Z,5.7
2023-02-18T01:28:36.740Z,7.6
2023-02-18T01:31:38.799Z,5.4
2023-02-18T01:34:40.699Z,5.3
2023-02-18T01:37:42.621Z,4.4
2023-02-18T01:40:44.569Z,5
2023-02-18T01:43:46.540Z,4.7
2023-02-18T01:46:48.556Z,3.9
2023-02-18T01:49:50.432Z,4.8
2023-02-18T01:52:52.401Z,4.2
2023-02-18T01:55:54.359Z,4.4
2023-02-18T01:58:56.361Z,6.2
2023-02-18T02:01:58.362Z,4.9
2023-02-18T02:05:00.237Z,5.3
2023-02-18T02:08:02.231Z,5.3
2023-02-18T02:11:04.155Z,3.6
2023-02-18T02:14:06.119Z,4.5
2023-02-18T02:17:08.143Z,3.6
2023-02-18T02:20:10.061Z,4.7
2023-02-18T02:23:12.032Z,6
2023-02-18T02:26:13.991Z,2.9
2023-02-18T02:29:15.969Z,2.9
2023-02-18T02:32:17.915Z,2.1
2023-02-18T02:35:19.887Z,2.7
2023-02-18T02:38:21.847Z,2.8
2023-02-18T02:41:23.821Z,2.3
2023-02-18T02:44:25.778Z,2.4
2023-02-18T02:47:27.735Z,1.3
2023-02-18T02:50:29.723Z,1.7
2023-02-18T02:53:31.651Z,2
2023-02-18T02:56:33.647Z,1.4
2023-02-18T02:59:35.582Z,0.9
2023-02-18T03:02:37.540Z,2.6
2023-02-18T03:05:39.507Z,1.3
2023-02-18T03:08:41.497Z,1.5
2023-02-18T03:11:43.392Z,1.6
2023-02-18T03:14:45.362Z,0.6
2023-02-18T03:17:47.365Z,1.5
2023-02-18T03:20:49.353Z,1.6
2023-02-18T03:23:51.275Z,1.1
2023-02-18T03:26:53.225Z,1.3
2023-02-18T03:29:55.220Z,2
2023-02-18T03:32:57.166Z,1.3
2023-02-18T03:35:59.129Z,0.8
2023-02-18T03:39:01.115Z,0.8
2023-02-18T03:42:03.097Z,0.9
2023-02-18T03:45:05.031Z,0.9
2023-02-18T03:48:06.991Z,1.3
2023-02-18T03:51:08.958Z,1.4
2023-02-18T03:54:10.938Z,2.2
2023-02-18T03:57:12.886Z,1.6
2023-02-18T04:00:14.867Z,1.1
2023-02-18T04:03:16.821Z,1.8
2023-02-18T04:06:18.775Z,0.9
2023-02-18T04:09:20.746Z,1.3
2023-02-18T04:12:24.239Z,3.1
2023-02-18T04:15:24.748Z,1.7
2023-02-18T04:18:26.694Z,0.7
2023-02-18T04:21:28.678Z,1.2
2023-02-18T04:24:30.623Z,1.1
2023-02-18T04:27:32.589Z,1.3
2023-02-18T04:30:34.635Z,1.7
2023-02-18T04:33:36.481Z,1.1
2023-02-18T04:36:38.434Z,1.9
2023-02-18T04:39:40.410Z,1.7
2023-02-18T04:42:42.399Z,1.7
2023-02-18T04:45:44.426Z,1
2023-02-18T04:48:46.298Z,1.8
2023-02-18T04:51:48.272Z,1.7
2023-02-18T04:54:50.228Z,1.1
2023-02-18T04:57:52.200Z,1.6
2023-02-18T05:00:54.192Z,1
2023-02-18T05:03:56.117Z,1.4
2023-02-18T05:06:58.067Z,1.7
2023-02-18T05:10:00.046Z,2.5
2023-02-18T05:13:02.011Z,2.1
2023-02-18T05:16:04.027Z,2.5
2023-02-18T05:19:05.931Z,2.1
2023-02-18T05:22:07.894Z,2.7
2023-02-18T05:25:10.078Z,2.3
2023-02-18T05:28:11.798Z,3.3
2023-02-18T05:31:13.852Z,2.6
2023-02-18T05:34:15.710Z,3.3
2023-02-18T05:37:17.690Z,2.5
2023-02-18T05:40:19.650Z,2.5
2023-02-18T05:43:21.619Z,2.5
2023-02-18T05:46:23.684Z,2.5
2023-02-18T05:49:25.540Z,2.1
2023-02-18T05:52:27.510Z,1.7
2023-02-18T05:55:29.508Z,3
2023-02-18T05:58:31.488Z,1.7
2023-02-18T06:01:33.442Z,2.9
2023-02-18T06:04:35.376Z,1.9
2023-02-18T06:07:37.345Z,4.1
2023-02-18T06:10:39.311Z,3.2
2023-02-18T06:13:41.278Z,2.3
2023-02-18T06:16:43.260Z,2.1
2023-02-18T06:19:45.230Z,3.3
2023-02-18T06:22:47.145Z,2.4
2023-02-18T06:25:49.123Z,1.6
2023-02-18T06:28:51.086Z,2.5
2023-02-18T06:31:53.195Z,2.1
2023-02-18T06:34:55.033Z,2.3
2023-02-18T06:37:56.975Z,2.9
2023-02-18T06:40:58.939Z,2.5
2023-02-18T06:44:00.960Z,2.8
2023-02-18T06:47:02.872Z,2.3
2023-02-18T06:50:04.874Z,3
2023-02-18T06:53:06.786Z,3.5
2023-02-18T06:56:09.027Z,3
2023-02-18T06:59:10.719Z,3.2
2023-02-18T07:02:12.670Z,2.1
2023-02-18T07:05:14.626Z,2.9
2023-02-18T07:08:16.582Z,2.4
2023-02-18T07:11:18.589Z,3
2023-02-18T07:14:20.581Z,2.6
2023-02-18T07:17:22.509Z,2.9
2023-02-18T07:20:24.477Z,2.2
2023-02-18T07:23:26.425Z,3.5
2023-02-18T07:26:28.391Z,2.2
2023-02-18T07:29:30.336Z,4.6
2023-02-18T07:32:32.299Z,4.2
2023-02-18T07:35:34.334Z,2.6
2023-02-18T07:38:36.231Z,2.2
2023-02-18T07:41:38.181Z,1.5
2023-02-18T07:44:40.390Z,5.5
2023-02-18T07:47:42.172Z,1.2
2023-02-18T07:50:44.096Z,1.2
2023-02-18T07:53:46.082Z,1.5
2023-02-18T07:56:48.027Z,2
2023-02-18T07:59:49.971Z,2
2023-02-18T08:02:51.965Z,1.7
2023-02-18T08:05:53.901Z,2.1
2023-02-18T08:08:55.856Z,1.4
2023-02-18T08:11:57.818Z,2.3
2023-02-18T08:14:59.809Z,1.9
2023-02-18T08:18:01.763Z,3.2
2023-02-18T08:21:03.720Z,2.9
2023-02-18T08:24:05.655Z,2.6
2023-02-18T08:27:07.638Z,2.8
2023-02-18T08:30:09.767Z,3.4
2023-02-18T08:33:11.575Z,3
2023-02-18T08:36:13.537Z,3.8
2023-02-18T08:39:15.526Z,2.6
2023-02-18T08:42:17.456Z,3
2023-02-18T08:45:19.419Z,3.8
2023-02-18T08:48:21.376Z,2
2023-02-18T08:51:23.337Z,4.4
2023-02-18T08:54:25.297Z,3.5
2023-02-18T08:57:27.246Z,2.9
2023-02-18T09:00:29.381Z,2.8
2023-02-18T09:03:31.170Z,2.7
2023-02-18T09:06:33.161Z,3.6
2023-02-18T09:09:35.079Z,3.5
2023-02-18T09:12:37.063Z,4.3
2023-02-18T09:15:39.036Z,3
2023-02-18T09:18:40.974Z,3
2023-02-18T09:21:42.949Z,4.8
2023-02-18T09:24:44.902Z,3.4
2023-02-18T09:27:46.850Z,2.1
2023-02-18T09:30:48.858Z,3.3
2023-02-18T09:33:50.755Z,1.8
2023-02-18T09:36:52.722Z,2.7
2023-02-18T09:39:54.688Z,2.5
2023-02-18T09:42:56.659Z,2.4
2023-02-18T09:45:58.641Z,2.3
2023-02-18T09:49:00.569Z,2.1
2023-02-18T09:52:02.522Z,1.8
2023-02-18T09:55:04.566Z,2.6
2023-02-18T09:58:06.461Z,3
2023-02-18T10:01:08.729Z,1.5
2023-02-18T10:04:10.439Z,3.5
2023-02-18T10:07:12.340Z,2.1
2023-02-18T10:10:14.339Z,2.5
2023-02-18T10:13:16.263Z,1.1
2023-02-18T10:16:18.281Z,1.9
2023-02-18T10:19:20.219Z,1.2
2023-02-18T10:22:22.148Z,1.8
2023-02-18T10:25:24.102Z,1.2
2023-02-18T10:28:26.065Z,0.7
2023-02-18T10:31:28.124Z,1.4
2023-02-18T10:34:30.008Z,1.3
2023-02-18T10:37:31.959Z,1.4
2023-02-18T10:40:33.922Z,1
2023-02-18T10:43:35.896Z,1
2023-02-18T10:46:37.974Z,1.5
2023-02-18T10:49:39.814Z,1.5
2023-02-18T10:52:41.779Z,1.7
2023-02-18T10:55:43.733Z,0.5
2023-02-18T10:58:45.747Z,1
2023-02-18T11:01:47.715Z,1.6
2023-02-18T11:04:49.668Z,1.7
2023-02-18T11:07:51.587Z,1.8
2023-02-18T11:10:53.570Z,2.5
2023-02-18T11:13:55.515Z,0.7
2023-02-18T11:16:57.484Z,0.6
2023-02-18T11:19:59.436Z,1.5
2023-02-18T11:23:01.395Z,1.7
2023-02-18T11:26:03.405Z,1.2
2023-02-18T11:29:05.303Z,0.6
2023-02-18T11:32:07.389Z,1.5
2023-02-18T11:35:09.287Z,1.1
2023-02-18T11:38:11.203Z,0.9
2023-02-18T11:41:13.168Z,0.5
2023-02-18T11:44:15.128Z,2.8
2023-02-18T11:47:17.096Z,0.8
2023-02-18T11:50:19.048Z,0.8
2023-02-18T11:53:21.033Z,3.5
2023-02-18T11:56:22.982Z,3
2023-02-18T11:59:24.971Z,1.4
2023-02-18T12:02:26.924Z,1.9
2023-02-18T12:05:28.969Z,3.6
2023-02-18T12:08:30.950Z,3
2023-02-18T12:11:32.827Z,2.5
2023-02-18T12:14:34.775Z,2.2
2023-02-18T12:17:36.738Z,1.9
2023-02-18T12:20:38.680Z,2.3
2023-02-18T12:23:40.621Z,3.9
2023-02-18T12:26:42.583Z,2.8
2023-02-18T12:29:44.548Z,3.5
2023-02-18T12:32:46.521Z,4.1
2023-02-18T12:35:48.484Z,3.3
2023-02-18T12:38:50.442Z,5.2
2023-02-18T12:41:52.405Z,3.3
2023-02-18T12:44:54.344Z,4.1
2023-02-18T12:47:56.309Z,1.9
2023-02-18T12:50:58.280Z,5.1
2023-02-18T12:54:00.228Z,3.7
2023-02-18T12:57:02.233Z,2.6
2023-02-18T13:00:04.170Z,3
2023-02-18T13:03:06.128Z,3
2023-02-18T13:06:08.407Z,2.3
2023-02-18T13:09:10.047Z,2.6
2023-02-18T13:12:12.009Z,3
2023-02-18T13:15:13.981Z,3.8
2023-02-18T13:18:15.944Z,2.6
2023-02-18T13:21:17.909Z,2.5
2023-02-18T13:24:19.894Z,3.9
2023-02-18T13:27:21.843Z,4.2
2023-02-18T13:30:23.880Z,2.5
2023-02-18T13:33:25.776Z,3.2
2023-02-18T13:36:27.708Z,3.2
2023-02-18T13:39:29.666Z,2.8
2023-02-18T13:42:31.671Z,3
2023-02-18T13:45:33.605Z,3.6
2023-02-18T13:48:35.586Z,2.6
2023-02-18T13:51:37.506Z,4.7
2023-02-18T13:54:39.465Z,16.5
2023-02-18T13:57:41.423Z,10.1
2023-02-18T14:00:43.394Z,9.3
2023-02-18T14:03:45.356Z,6.2
2023-02-18T14:06:47.374Z,4.4
2023-02-18T14:09:49.296Z,4.2
2023-02-18T14:12:51.987Z,3.5
2023-02-18T14:15:53.336Z,2.6
2023-02-18T14:18:55.213Z,2.9
2023-02-18T14:21:57.226Z,3.2
2023-02-18T14:24:59.168Z,3.7
2023-02-18T14:28:01.103Z,2.9
2023-02-18T14:31:03.128Z,3.4
2023-02-18T14:34:05.036Z,4.1
2023-02-18T14:37:07.011Z,2
2023-02-18T14:40:08.943Z,3.6
2023-02-18T14:43:10.899Z,2.8
2023-02-18T14:46:12.888Z,3
2023-02-18T14:49:14.822Z,2.1
2023-02-18T14:52:16.780Z,2.9
2023-02-18T14:55:18.745Z,3.9
2023-02-18T14:58:20.710Z,2.5
2023-02-18T15:01:22.722Z,4.5
2023-02-18T15:04:24.646Z,3.1
2023-02-18T15:07:26.607Z,2.6
2023-02-18T15:10:28.565Z,2.6
2023-02-18T15:13:30.528Z,4.6
2023-02-18T15:16:32.498Z,3.9
2023-02-18T15:19:34.453Z,2.5
2023-02-18T15:22:36.457Z,2.6
2023-02-18T15:25:38.405Z,4.5
2023-02-18T15:28:40.341Z,2.8
2023-02-18T15:31:42.346Z,2.2
2023-02-18T15:34:44.243Z,2.2
2023-02-18T15:37:46.267Z,3.2
2023-02-18T15:40:48.174Z,4.3
2023-02-18T15:43:50.114Z,4.3
2023-02-18T15:46:52.088Z,6.1
2023-02-18T15:49:54.040Z,4.9
2023-02-18T15:52:55.991Z,3.3
2023-02-18T15:55:58.031Z,2.5
2023-02-18T15:58:59.938Z,3.1
2023-02-18T16:02:01.977Z,3.7
2023-02-18T16:05:05.351Z,4.3
2023-02-18T16:08:05.832Z,2.2
2023-02-18T16:11:08.012Z,3.1
2023-02-18T16:14:09.780Z,5.2
2023-02-18T16:17:11.693Z,4.7
2023-02-18T16:20:13.729Z,2.7
2023-02-18T16:23:15.631Z,3.1
2023-02-18T16:26:17.604Z,3
2023-02-18T16:29:19.560Z,1.5
2023-02-18T16:32:21.597Z,1.4
2023-02-18T16:35:23.483Z,1.9
2023-02-18T16:38:25.448Z,1.4
2023-02-18T16:41:27.433Z,2.2
2023-02-18T16:44:29.377Z,2.2
2023-02-18T16:47:31.322Z,2.2
2023-02-18T16:50:33.312Z,1.8
2023-02-18T16:53:35.264Z,2.2
2023-02-18T16:56:37.262Z,3.1
2023-02-18T16:59:39.223Z,2.5
2023-02-18T17:02:41.151Z,1.3
2023-02-18T17:05:43.445Z,1.8
2023-02-18T17:08:45.103Z,3.9
2023-02-18T17:11:47.072Z,2.2
2023-02-18T17:14:49.033Z,1.6
2023-02-18T17:17:50.997Z,2.4
2023-02-18T17:20:52.974Z,2.5
2023-02-18T17:23:54.933Z,2.1
2023-02-18T17:26:56.919Z,1.9
2023-02-18T17:29:58.889Z,3
2023-02-18T17:33:02.992Z,2.1
2023-02-18T17:36:02.763Z,1.6
2023-02-18T17:39:04.804Z,3
2023-02-18T17:42:06.673Z,1.7
2023-02-18T17:45:08.689Z,2.1
2023-02-18T17:48:10.620Z,3.4
2023-02-18T17:51:12.573Z,1.4
2023-02-18T17:54:14.548Z,1.5
2023-02-18T17:57:16.495Z,2.3
2023-02-18T18:00:18.484Z,2.3
2023-02-18T18:03:20.518Z,3.7
2023-02-18T18:06:22.417Z,5.2
2023-02-18T18:09:24.401Z,2.6
2023-02-18T18:12:26.355Z,4.2
2023-02-18T18:15:28.337Z,1.9
2023-02-18T18:18:30.316Z,2.9
2023-02-18T18:21:32.263Z,2.8
2023-02-18T18:24:34.233Z,2.7
2023-02-18T18:27:36.203Z,3.1
2023-02-18T18:30:38.339Z,3.2
2023-02-18T18:33:40.184Z,3.5
2023-02-18T18:36:42.136Z,4
2023-02-18T18:39:44.089Z,3.2
2023-02-18T18:42:46.071Z,3.2
2023-02-18T18:45:48.012Z,5.1
2023-02-18T18:48:49.935Z,3.5
2023-02-18T18:51:51.906Z,4.9
2023-02-18T18:54:53.889Z,3.9
2023-02-18T18:57:55.911Z,2.6
2023-02-18T19:00:57.940Z,3.9
2023-02-18T19:03:59.845Z,3.2
2023-02-18T19:07:01.727Z,2.7
2023-02-18T19:10:03.700Z,3.7
2023-02-18T19:13:05.772Z,4.9
2023-02-18T19:16:07.718Z,3.6
2023-02-18T19:19:09.627Z,2.5
2023-02-18T19:22:11.558Z,3.6
2023-02-18T19:25:13.586Z,2
2023-02-18T19:28:15.494Z,5
2023-02-18T19:31:17.587Z,3.5
2023-02-18T19:34:19.408Z,2.8
2023-02-18T19:37:23.284Z,3
2023-02-18T19:40:23.336Z,1.8
2023-02-18T19:43:25.292Z,2.1
2023-02-18T19:46:27.369Z,2.7
2023-02-18T19:49:29.222Z,2.6
2023-02-18T19:52:31.182Z,2.9
2023-02-18T19:55:33.158Z,3
2023-02-18T19:58:35.130Z,3.3
2023-02-18T20:01:37.159Z,3.2
2023-02-18T20:04:39.058Z,2.6
2023-02-18T20:07:41.060Z,3
2023-02-18T20:10:42.975Z,2.3
2023-02-18T20:13:44.963Z,2.6
2023-02-18T20:16:46.919Z,2.3
2023-02-18T20:19:48.876Z,2
2023-02-18T20:22:50.857Z,2.7
2023-02-18T20:25:52.812Z,4
2023-02-18T20:28:54.803Z,3.7
2023-02-18T20:31:56.832Z,3.6
2023-02-18T20:34:58.693Z,5.7
2023-02-18T20:38:00.673Z,3.4
2023-02-18T20:41:02.627Z,3
2023-02-18T20:44:04.595Z,3.6
2023-02-18T20:47:06.537Z,2.6
2023-02-18T20:50:08.531Z,3.9
2023-02-18T20:53:10.471Z,3.6
2023-02-18T20:56:12.418Z,4.4
2023-02-18T20:59:14.380Z,3.8
2023-02-18T21:02:16.342Z,3.8
2023-02-18T21:05:18.290Z,4.4
2023-02-18T21:08:20.267Z,4.6
2023-02-18T21:11:22.242Z,4.7
2023-02-18T21:14:24.200Z,4.1
2023-02-18T21:17:26.165Z,3.6
2023-02-18T21:20:28.130Z,4.4
2023-02-18T21:23:30.085Z,3.1
2023-02-18T21:26:32.099Z,7.1
2023-02-18T21:29:34.045Z,4.1
2023-02-18T21:32:36.097Z,4.4
2023-02-18T21:35:37.941Z,3.8
2023-02-18T21:38:39.947Z,4.6
2023-02-18T21:41:41.873Z,3.8
2023-02-18T21:44:43.905Z,4.2
2023-02-18T21:47:45.794Z,4.7
2023-02-18T21:50:47.746Z,4.3
2023-02-18T21:53:49.758Z,4.8
2023-02-18T21:56:51.722Z,4
2023-02-18T21:59:53.688Z,4.4
2023-02-18T22:02:55.598Z,4.9
2023-02-18T22:05:57.593Z,4.8
2023-02-18T22:08:59.529Z,4.9
2023-02-18T22:12:01.507Z,4.1
2023-02-18T22:15:03.491Z,6.2
2023-02-18T22:18:05.394Z,4.2
2023-02-18T22:21:07.507Z,4.2
2023-02-18T22:24:09.335Z,7
2023-02-18T22:27:11.285Z,5.2
2023-02-18T22:30:13.270Z,4.4
2023-02-18T22:33:15.194Z,4.9
2023-02-18T22:36:17.195Z,6.2
2023-02-18T22:39:19.134Z,5.6
2023-02-18T22:42:21.078Z,5.9
2023-02-18T22:45:23.061Z,4.8
2023-02-18T22:48:24.995Z,5.9
2023-02-18T22:51:26.972Z,7.3
2023-02-18T22:54:28.919Z,5.2
2023-02-18T22:57:30.877Z,5.2
2023-02-18T23:00:32.846Z,6.4
2023-02-18T23:03:35.046Z,3.4
2023-02-18T23:06:36.811Z,4.8
2023-02-18T23:09:38.711Z,5.9
2023-02-18T23:12:40.715Z,6.6
2023-02-18T23:15:42.688Z,10.7
2023-02-18T23:18:44.697Z,6.2
2023-02-18T23:21:46.589Z,4.4
2023-02-18T23:24:48.545Z,6.5
2023-02-18T23:27:50.522Z,4.4
2023-02-18T23:30:52.541Z,6.2
2023-02-18T23:33:54.479Z,6
2023-02-18T23:36:56.458Z,3.9
2023-02-18T23:39:58.379Z,4.2
2023-02-18T23:43:00.338Z,5.3
2023-02-18T23:46:02.401Z,5.2
2023-02-18T23:49:04.308Z,3.9
2023-02-18T23:52:06.266Z,5.4
2023-02-18T23:55:08.185Z,4.6
2023-02-18T23:58:10.183Z,5.6
